sensor_id;sensor_type;location;lat;lon;timestamp;pressure;altitude;pressure_sealevel;temperature;humidity
33554;BME280;19885;42.208;24.952;2023-03-01T00:00:40;100682.66;;;6.92;100.00
33554;BME280;19885;42.208;24.952;2023-03-01T00:03:06;100673.38;;;6.73;100.00
33554;BME280;19885;42.208;24.952;2023-03-01T00:05:32;100674.66;;;6.61;100.00
33554;BME280;19885;42.208;24.952;2023-03-01T00:08:01;100680.63;;;6.58;100.00
33554;BME280;19885;42.208;24.952;2023-03-01T00:10:30;100629.72;;;6.35;100.00
33554;BME280;19885;42.208;24.952;2023-03-01T00:12:56;100672.13;;;6.62;100.00
33554;BME280;19885;42.208;24.952;2023-03-01T00:15:21;100675.38;;;6.57;100.00
33554;BME280;19885;42.208;24.952;2023-03-01T00:17:50;100679.13;;;6.41;100.00
33554;BME280;19885;42.208;24.952;2023-03-01T00:20:15;100689.03;;;6.53;100.00
33554;BME280;19885;42.208;24.952;2023-03-01T00:22:42;100690.81;;;6.54;100.00
33554;BME280;19885;42.208;24.952;2023-03-01T00:25:10;100685.78;;;6.58;100.00
33554;BME280;19885;42.208;24.952;2023-03-01T00:27:36;100686.72;;;6.60;100.00
33554;BME280;19885;42.208;24.952;2023-03-01T00:30:02;100688.63;;;6.66;100.00
33554;BME280;19885;42.208;24.952;2023-03-01T00:32:32;100686.84;;;6.63;100.00
33554;BME280;19885;42.208;24.952;2023-03-01T00:35:03;100678.22;;;6.64;100.00
33554;BME280;19885;42.208;24.952;2023-03-01T00:37:32;100680.06;;;6.67;100.00
33554;BME280;19885;42.208;24.952;2023-03-01T00:39:58;100679.78;;;6.59;100.00
33554;BME280;19885;42.208;24.952;2023-03-01T00:42:23;100683.22;;;6.58;100.00
33554;BME280;19885;42.208;24.952;2023-03-01T00:44:49;100692.19;;;6.68;100.00
33554;BME280;19885;42.208;24.952;2023-03-01T00:47:18;100682.47;;;6.62;100.00
33554;BME280;19885;42.208;24.952;2023-03-01T00:49:43;100680.09;;;6.68;100.00
33554;BME280;19885;42.208;24.952;2023-03-01T00:52:11;100674.91;;;6.68;100.00
33554;BME280;19885;42.208;24.952;2023-03-01T00:54:37;100669.38;;;6.58;100.00
33554;BME280;19885;42.208;24.952;2023-03-01T00:57:04;100666.50;;;6.50;100.00
33554;BME280;19885;42.208;24.952;2023-03-01T00:59:29;100664.75;;;6.49;100.00
33554;BME280;19885;42.208;24.952;2023-03-01T01:01:55;100659.59;;;6.49;100.00
33554;BME280;19885;42.208;24.952;2023-03-01T01:04:21;100663.09;;;6.51;100.00
33554;BME280;19885;42.208;24.952;2023-03-01T01:06:47;100667.66;;;6.58;100.00
33554;BME280;19885;42.208;24.952;2023-03-01T01:09:16;100660.00;;;6.61;100.00
33554;BME280;19885;42.208;24.952;2023-03-01T01:11:47;100646.03;;;6.56;100.00
33554;BME280;19885;42.208;24.952;2023-03-01T01:14:14;100652.53;;;6.70;100.00
33554;BME280;19885;42.208;24.952;2023-03-01T01:16:40;100632.38;;;6.85;100.00
33554;BME280;19885;42.208;24.952;2023-03-01T01:19:06;100647.84;;;6.84;100.00
33554;BME280;19885;42.208;24.952;2023-03-01T01:21:35;100645.25;;;6.84;100.00
33554;BME280;19885;42.208;24.952;2023-03-01T01:24:03;100652.78;;;6.76;100.00
33554;BME280;19885;42.208;24.952;2023-03-01T01:26:32;100642.66;;;6.84;100.00
33554;BME280;19885;42.208;24.952;2023-03-01T01:29:00;100649.19;;;6.73;100.00
33554;BME280;19885;42.208;24.952;2023-03-01T01:31:29;100648.53;;;6.78;100.00
33554;BME280;19885;42.208;24.952;2023-03-01T01:33:56;100649.88;;;6.67;100.00
33554;BME280;19885;42.208;24.952;2023-03-01T01:36:22;100651.69;;;6.70;100.00
33554;BME280;19885;42.208;24.952;2023-03-01T01:38:48;100645.00;;;6.76;100.00
33554;BME280;19885;42.208;24.952;2023-03-01T01:41:19;100644.78;;;6.70;100.00
33554;BME280;19885;42.208;24.952;2023-03-01T01:43:48;100644.78;;;6.70;100.00
33554;BME280;19885;42.208;24.952;2023-03-01T01:46:32;100638.06;;;6.75;100.00
33554;BME280;19885;42.208;24.952;2023-03-01T01:49:06;100623.53;;;6.55;100.00
33554;BME280;19885;42.208;24.952;2023-03-01T01:51:37;100640.47;;;6.71;100.00
33554;BME280;19885;42.208;24.952;2023-03-01T01:54:25;100633.91;;;6.55;100.00
33554;BME280;19885;42.208;24.952;2023-03-01T01:57:00;100638.88;;;6.49;100.00
33554;BME280;19885;42.208;24.952;2023-03-01T01:59:31;100641.78;;;6.58;100.00
33554;BME280;19885;42.208;24.952;2023-03-01T02:02:00;100642.66;;;6.59;100.00
33554;BME280;19885;42.208;24.952;2023-03-01T02:04:31;100639.56;;;6.69;100.00
33554;BME280;19885;42.208;24.952;2023-03-01T02:07:15;100594.13;;;6.53;100.00
33554;BME280;19885;42.208;24.952;2023-03-01T02:09:49;100639.88;;;6.78;100.00
33554;BME280;19885;42.208;24.952;2023-03-01T02:12:17;100638.34;;;6.84;100.00
33554;BME280;19885;42.208;24.952;2023-03-01T02:14:43;100632.72;;;6.71;100.00
33554;BME280;19885;42.208;24.952;2023-03-01T02:17:17;100610.56;;;6.54;100.00
33554;BME280;19885;42.208;24.952;2023-03-01T02:20:02;100634.22;;;6.64;100.00
33554;BME280;19885;42.208;24.952;2023-03-01T02:22:34;100621.75;;;6.78;100.00
33554;BME280;19885;42.208;24.952;2023-03-01T02:27:49;100625.63;;;6.65;100.00
33554;BME280;19885;42.208;24.952;2023-03-01T02:30:21;100621.75;;;6.78;100.00
33554;BME280;19885;42.208;24.952;2023-03-01T02:32:48;100621.78;;;6.79;100.00
33554;BME280;19885;42.208;24.952;2023-03-01T02:35:16;100627.03;;;6.81;100.00
33554;BME280;19885;42.208;24.952;2023-03-01T02:37:44;100623.81;;;6.88;100.00
33554;BME280;19885;42.208;24.952;2023-03-01T02:40:13;100617.47;;;6.80;100.00
33554;BME280;19885;42.208;24.952;2023-03-01T02:42:49;100623.56;;;6.80;100.00
33554;BME280;19885;42.208;24.952;2023-03-01T02:45:18;100604.69;;;6.59;100.00
33554;BME280;19885;42.208;24.952;2023-03-01T02:47:44;100633.91;;;6.80;100.00
33554;BME280;19885;42.208;24.952;2023-03-01T02:55:30;100638.66;;;6.68;100.00
33554;BME280;19885;42.208;24.952;2023-03-01T02:57:56;100597.75;;;6.58;100.00
33554;BME280;19885;42.208;24.952;2023-03-01T03:00:32;100627.59;;;6.72;100.00
33554;BME280;19885;42.208;24.952;2023-03-01T03:03:01;100621.06;;;6.83;100.00
33554;BME280;19885;42.208;24.952;2023-03-01T03:05:30;100633.56;;;6.70;100.00
33554;BME280;19885;42.208;24.952;2023-03-01T03:08:00;100622.94;;;6.62;100.00
33554;BME280;19885;42.208;24.952;2023-03-01T03:10:32;100616.69;;;6.57;100.00
33554;BME280;19885;42.208;24.952;2023-03-01T03:13:05;100623.53;;;6.55;100.00
33554;BME280;19885;42.208;24.952;2023-03-01T03:15:32;100628.72;;;6.55;100.00
33554;BME280;19885;42.208;24.952;2023-03-01T03:18:02;100634.91;;;6.59;100.00
33554;BME280;19885;42.208;24.952;2023-03-01T03:20:29;100624.47;;;6.57;100.00
33554;BME280;19885;42.208;24.952;2023-03-01T03:22:56;100632.16;;;6.54;100.00
33554;BME280;19885;42.208;24.952;2023-03-01T03:25:25;100622.44;;;6.48;100.00
33554;BME280;19885;42.208;24.952;2023-03-01T03:27:52;100617.16;;;6.45;100.00
33554;BME280;19885;42.208;24.952;2023-03-01T03:30:26;100624.88;;;6.68;100.00
33554;BME280;19885;42.208;24.952;2023-03-01T03:32:53;100619.84;;;6.72;100.00
33554;BME280;19885;42.208;24.952;2023-03-01T03:35:24;100621.44;;;6.69;100.00
33554;BME280;19885;42.208;24.952;2023-03-01T03:37:51;100606.34;;;6.57;100.00
33554;BME280;19885;42.208;24.952;2023-03-01T03:40:29;100625.72;;;6.68;100.00
33554;BME280;19885;42.208;24.952;2023-03-01T03:42:55;100627.19;;;6.60;100.00
33554;BME280;19885;42.208;24.952;2023-03-01T03:45:21;100627.28;;;6.63;100.00
33554;BME280;19885;42.208;24.952;2023-03-01T03:47:48;100629.66;;;6.57;100.00
33554;BME280;19885;42.208;24.952;2023-03-01T03:50:16;100627.94;;;6.58;100.00
33554;BME280;19885;42.208;24.952;2023-03-01T03:52:45;100618.69;;;6.64;100.00
33554;BME280;19885;42.208;24.952;2023-03-01T03:55:15;100607.91;;;6.77;100.00
33554;BME280;19885;42.208;24.952;2023-03-01T03:57:46;100599.31;;;6.78;100.00
33554;BME280;19885;42.208;24.952;2023-03-01T04:00:21;100607.22;;;7.08;100.00
33554;BME280;19885;42.208;24.952;2023-03-01T04:02:50;100612.00;;;6.96;100.00
33554;BME280;19885;42.208;24.952;2023-03-01T04:05:21;100611.31;;;7.01;100.00
33554;BME280;19885;42.208;24.952;2023-03-01T04:07:52;100610.41;;;6.99;100.00
33554;BME280;19885;42.208;24.952;2023-03-01T04:10:42;100592.13;;;6.95;100.00
33554;BME280;19885;42.208;24.952;2023-03-01T04:13:11;100614.09;;;7.07;100.00
33554;BME280;19885;42.208;24.952;2023-03-01T04:15:38;100605.50;;;7.08;100.00
33554;BME280;19885;42.208;24.952;2023-03-01T04:18:04;100607.50;;;6.90;100.00
33554;BME280;19885;42.208;24.952;2023-03-01T04:20:33;100609.44;;;6.97;100.00
33554;BME280;19885;42.208;24.952;2023-03-01T04:23:16;100599.88;;;6.95;100.00
33554;BME280;19885;42.208;24.952;2023-03-01T04:25:48;100596.09;;;6.85;100.00
33554;BME280;19885;42.208;24.952;2023-03-01T04:28:25;100619.41;;;6.85;100.00
33554;BME280;19885;42.208;24.952;2023-03-01T04:30:52;100625.16;;;6.77;100.00
33554;BME280;19885;42.208;24.952;2023-03-01T04:33:18;100627.50;;;6.94;100.00
33554;BME280;19885;42.208;24.952;2023-03-01T04:35:44;100619.19;;;6.79;100.00
33554;BME280;19885;42.208;24.952;2023-03-01T04:38:09;100620.03;;;6.78;100.00
33554;BME280;19885;42.208;24.952;2023-03-01T04:40:36;100623.19;;;6.95;100.00
33554;BME280;19885;42.208;24.952;2023-03-01T04:43:03;100606.97;;;6.75;100.00
33554;BME280;19885;42.208;24.952;2023-03-01T04:45:29;100617.56;;;6.81;100.00
33554;BME280;19885;42.208;24.952;2023-03-01T04:47:55;100622.00;;;6.85;100.00
33554;BME280;19885;42.208;24.952;2023-03-01T04:50:23;100620.84;;;6.77;100.00
33554;BME280;19885;42.208;24.952;2023-03-01T04:52:51;100632.78;;;6.72;100.00
33554;BME280;19885;42.208;24.952;2023-03-01T04:55:17;100636.53;;;6.82;100.00
33554;BME280;19885;42.208;24.952;2023-03-01T04:57:43;100633.03;;;6.80;100.00
33554;BME280;19885;42.208;24.952;2023-03-01T05:00:12;100631.94;;;6.73;100.00
33554;BME280;19885;42.208;24.952;2023-03-01T05:02:55;100631.53;;;6.86;100.00
33554;BME280;19885;42.208;24.952;2023-03-01T05:08:01;100622.47;;;6.74;100.00
33554;BME280;19885;42.208;24.952;2023-03-01T05:10:29;100631.06;;;6.73;100.00
33554;BME280;19885;42.208;24.952;2023-03-01T05:12:56;100625.03;;;6.48;100.00
33554;BME280;19885;42.208;24.952;2023-03-01T05:15:30;100620.13;;;6.56;100.00
33554;BME280;19885;42.208;24.952;2023-03-01T05:17:58;100621.69;;;6.51;100.00
33554;BME280;19885;42.208;24.952;2023-03-01T05:20:25;100612.81;;;6.44;100.00
33554;BME280;19885;42.208;24.952;2023-03-01T05:22:52;100628.50;;;6.49;100.00
33554;BME280;19885;42.208;24.952;2023-03-01T05:25:20;100619.81;;;6.47;100.00
33554;BME280;19885;42.208;24.952;2023-03-01T05:27:46;100630.25;;;6.50;100.00
33554;BME280;19885;42.208;24.952;2023-03-01T05:30:12;100635.34;;;6.47;100.00
33554;BME280;19885;42.208;24.952;2023-03-01T05:32:46;100630.06;;;6.44;100.00
33554;BME280;19885;42.208;24.952;2023-03-01T05:35:15;100622.09;;;6.38;100.00
33554;BME280;19885;42.208;24.952;2023-03-01T05:37:42;100628.34;;;6.44;100.00
33554;BME280;19885;42.208;24.952;2023-03-01T05:40:11;100627.94;;;6.34;100.00
33554;BME280;19885;42.208;24.952;2023-03-01T05:42:49;100627.09;;;6.33;100.00
33554;BME280;19885;42.208;24.952;2023-03-01T05:45:16;100626.34;;;6.36;100.00
33554;BME280;19885;42.208;24.952;2023-03-01T05:47:43;100638.53;;;6.40;100.00
33554;BME280;19885;42.208;24.952;2023-03-01T05:50:21;100621.03;;;6.33;100.00
33554;BME280;19885;42.208;24.952;2023-03-01T05:52:49;100645.03;;;6.53;100.00
33554;BME280;19885;42.208;24.952;2023-03-01T05:55:20;100647.56;;;6.51;100.00
33554;BME280;19885;42.208;24.952;2023-03-01T05:57:47;100642.19;;;6.45;100.00
33554;BME280;19885;42.208;24.952;2023-03-01T06:00:14;100640.69;;;6.28;100.00
33554;BME280;19885;42.208;24.952;2023-03-01T06:02:40;100654.88;;;6.39;100.00
33554;BME280;19885;42.208;24.952;2023-03-01T06:05:07;100652.31;;;6.39;100.00
33554;BME280;19885;42.208;24.952;2023-03-01T06:07:33;100656.91;;;6.47;100.00
33554;BME280;19885;42.208;24.952;2023-03-01T06:09:59;100654.78;;;6.60;100.00
33554;BME280;19885;42.208;24.952;2023-03-01T06:12:25;100663.31;;;6.57;100.00
33554;BME280;19885;42.208;24.952;2023-03-01T06:14:51;100664.25;;;6.59;100.00
33554;BME280;19885;42.208;24.952;2023-03-01T06:17:16;100665.47;;;6.45;100.00
33554;BME280;19885;42.208;24.952;2023-03-01T06:19:42;100661.41;;;6.52;100.00
33554;BME280;19885;42.208;24.952;2023-03-01T06:22:07;100672.25;;;6.65;100.00
33554;BME280;19885;42.208;24.952;2023-03-01T06:24:34;100648.78;;;6.61;100.00
33554;BME280;19885;42.208;24.952;2023-03-01T06:27:00;100663.75;;;6.69;100.00
33554;BME280;19885;42.208;24.952;2023-03-01T06:29:25;100659.47;;;6.70;100.00
33554;BME280;19885;42.208;24.952;2023-03-01T06:31:51;100657.97;;;6.76;100.00
33554;BME280;19885;42.208;24.952;2023-03-01T06:34:17;100660.75;;;6.82;100.00
33554;BME280;19885;42.208;24.952;2023-03-01T06:36:43;100662.72;;;6.89;100.00
33554;BME280;19885;42.208;24.952;2023-03-01T06:39:09;100665.72;;;6.76;100.00
33554;BME280;19885;42.208;24.952;2023-03-01T06:41:34;100666.03;;;6.85;100.00
33554;BME280;19885;42.208;24.952;2023-03-01T06:44:00;100656.75;;;6.92;100.00
33554;BME280;19885;42.208;24.952;2023-03-01T06:46:26;100656.72;;;6.90;100.00
33554;BME280;19885;42.208;24.952;2023-03-01T06:48:51;100660.41;;;6.97;100.00
33554;BME280;19885;42.208;24.952;2023-03-01T06:51:17;100657.84;;;6.98;100.00
33554;BME280;19885;42.208;24.952;2023-03-01T06:53:46;100660.41;;;6.97;100.00
33554;BME280;19885;42.208;24.952;2023-03-01T06:56:11;100656.97;;;6.98;100.00
33554;BME280;19885;42.208;24.952;2023-03-01T06:58:37;100659.69;;;7.02;100.00
33554;BME280;19885;42.208;24.952;2023-03-01T07:01:07;100667.16;;;6.93;100.00
33554;BME280;19885;42.208;24.952;2023-03-01T07:03:33;100667.28;;;6.96;100.00
33554;BME280;19885;42.208;24.952;2023-03-01T07:05:59;100653.47;;;6.97;100.00
33554;BME280;19885;42.208;24.952;2023-03-01T07:08:25;100667.09;;;6.90;100.00
33554;BME280;19885;42.208;24.952;2023-03-01T07:10:56;100662.00;;;6.93;100.00
33554;BME280;19885;42.208;24.952;2023-03-01T07:13:22;100659.84;;;7.07;100.00
33554;BME280;19885;42.208;24.952;2023-03-01T07:15:48;100661.56;;;7.06;100.00
33554;BME280;19885;42.208;24.952;2023-03-01T07:18:14;100664.13;;;7.05;100.00
33554;BME280;19885;42.208;24.952;2023-03-01T07:20:40;100650.88;;;6.97;100.00
33554;BME280;19885;42.208;24.952;2023-03-01T07:23:06;100661.53;;;7.05;100.00
33554;BME280;19885;42.208;24.952;2023-03-01T07:25:32;100666.50;;;7.24;100.00
33554;BME280;19885;42.208;24.952;2023-03-01T07:28:01;100668.53;;;7.07;100.00
33554;BME280;19885;42.208;24.952;2023-03-01T07:30:27;100671.31;;;7.13;100.00
33554;BME280;19885;42.208;24.952;2023-03-01T07:32:54;100665.13;;;7.08;100.00
33554;BME280;19885;42.208;24.952;2023-03-01T07:35:21;100665.00;;;7.05;100.00
33554;BME280;19885;42.208;24.952;2023-03-01T07:37:49;100649.81;;;6.91;100.00
33554;BME280;19885;42.208;24.952;2023-03-01T07:40:15;100661.69;;;7.09;100.00
33554;BME280;19885;42.208;24.952;2023-03-01T07:42:41;100656.69;;;7.15;100.00
33554;BME280;19885;42.208;24.952;2023-03-01T07:45:07;100649.16;;;7.23;100.00
33554;BME280;19885;42.208;24.952;2023-03-01T07:47:33;100656.69;;;7.15;100.00
33554;BME280;19885;42.208;24.952;2023-03-01T07:49:59;100645.53;;;7.18;100.00
33554;BME280;19885;42.208;24.952;2023-03-01T07:52:26;100650.47;;;7.36;100.00
33554;BME280;19885;42.208;24.952;2023-03-01T07:54:52;100651.91;;;7.28;100.00
33554;BME280;19885;42.208;24.952;2023-03-01T07:57:18;100644.38;;;7.35;100.00
33554;BME280;19885;42.208;24.952;2023-03-01T07:59:44;100631.56;;;7.40;100.00
33554;BME280;19885;42.208;24.952;2023-03-01T08:02:10;100637.78;;;7.45;100.00
33554;BME280;19885;42.208;24.952;2023-03-01T08:04:36;100646.41;;;7.72;100.00
33554;BME280;19885;42.208;24.952;2023-03-01T08:07:05;100640.84;;;7.60;100.00
33554;BME280;19885;42.208;24.952;2023-03-01T08:09:31;100638.34;;;7.63;100.00
33554;BME280;19885;42.208;24.952;2023-03-01T08:11:57;100644.13;;;7.54;100.00
33554;BME280;19885;42.208;24.952;2023-03-01T08:14:26;100648.50;;;7.55;100.00
33554;BME280;19885;42.208;24.952;2023-03-01T08:16:52;100650.00;;;7.49;100.00
33554;BME280;19885;42.208;24.952;2023-03-01T08:19:18;100644.81;;;7.49;100.00
33554;BME280;19885;42.208;24.952;2023-03-01T08:21:44;100638.41;;;7.64;100.00
33554;BME280;19885;42.208;24.952;2023-03-01T08:24:10;100639.13;;;7.60;100.00
33554;BME280;19885;42.208;24.952;2023-03-01T08:26:36;100635.56;;;7.57;100.00
33554;BME280;19885;42.208;24.952;2023-03-01T08:29:03;100634.28;;;7.43;100.00
33554;BME280;19885;42.208;24.952;2023-03-01T08:31:38;100633.25;;;7.38;100.00
33554;BME280;19885;42.208;24.952;2023-03-01T08:34:07;100642.09;;;7.44;100.00
33554;BME280;19885;42.208;24.952;2023-03-01T08:36:39;100625.31;;;7.33;100.00
33554;BME280;19885;42.208;24.952;2023-03-01T08:39:06;100641.22;;;7.45;100.00
33554;BME280;19885;42.208;24.952;2023-03-01T08:41:32;100636.88;;;7.43;100.00
33554;BME280;19885;42.208;24.952;2023-03-01T08:43:58;100638.06;;;7.54;100.00
33554;BME280;19885;42.208;24.952;2023-03-01T08:46:29;100620.63;;;7.50;100.00
33554;BME280;19885;42.208;24.952;2023-03-01T08:48:56;100635.56;;;7.57;100.00
33554;BME280;19885;42.208;24.952;2023-03-01T08:51:24;100643.16;;;7.51;100.00
33554;BME280;19885;42.208;24.952;2023-03-01T08:53:50;100637.78;;;7.45;100.00
33554;BME280;19885;42.208;24.952;2023-03-01T08:56:17;100637.22;;;7.55;100.00
33554;BME280;19885;42.208;24.952;2023-03-01T08:58:45;100636.13;;;7.75;100.00
33554;BME280;19885;42.208;24.952;2023-03-01T09:01:14;100640.28;;;7.98;100.00
33554;BME280;19885;42.208;24.952;2023-03-01T09:03:40;100642.56;;;7.87;100.00
33554;BME280;19885;42.208;24.952;2023-03-01T09:06:09;100641.78;;;7.90;100.00
33554;BME280;19885;42.208;24.952;2023-03-01T09:08:41;100640.13;;;7.92;100.00
33554;BME280;19885;42.208;24.952;2023-03-01T09:11:09;100636.91;;;8.01;100.00
33554;BME280;19885;42.208;24.952;2023-03-01T09:13:37;100639.91;;;7.86;100.00
33554;BME280;19885;42.208;24.952;2023-03-01T09:16:05;100624.28;;;7.83;100.00
33554;BME280;19885;42.208;24.952;2023-03-01T09:18:32;100645.09;;;7.86;100.00
33554;BME280;19885;42.208;24.952;2023-03-01T09:21:10;100635.53;;;7.83;100.00
33554;BME280;19885;42.208;24.952;2023-03-01T09:23:37;100643.34;;;7.85;100.00
33554;BME280;19885;42.208;24.952;2023-03-01T09:26:08;100630.53;;;7.89;100.00
33554;BME280;19885;42.208;24.952;2023-03-01T09:28:39;100629.72;;;7.92;100.00
33554;BME280;19885;42.208;24.952;2023-03-01T09:31:06;100637.00;;;7.75;100.00
33554;BME280;19885;42.208;24.952;2023-03-01T09:33:33;100639.28;;;7.65;100.00
33554;BME280;19885;42.208;24.952;2023-03-01T09:36:03;100638.25;;;7.88;100.00
33554;BME280;19885;42.208;24.952;2023-03-01T09:38:30;100633.75;;;7.82;100.00
33554;BME280;19885;42.208;24.952;2023-03-01T09:40:56;100637.28;;;8.14;100.00
33554;BME280;19885;42.208;24.952;2023-03-01T09:45:59;100592.66;;;7.68;100.00
33554;BME280;19885;42.208;24.952;2023-03-01T09:48:33;100622.44;;;7.79;100.00
33554;BME280;19885;42.208;24.952;2023-03-01T09:51:06;100626.00;;;7.84;100.00
33554;BME280;19885;42.208;24.952;2023-03-01T09:53:34;100627.03;;;7.89;100.00
33554;BME280;19885;42.208;24.952;2023-03-01T09:58:47;100629.34;;;7.80;100.00
33554;BME280;19885;42.208;24.952;2023-03-01T10:01:33;100617.03;;;7.73;100.00
33554;BME280;19885;42.208;24.952;2023-03-01T10:06:40;100618.09;;;7.79;100.00
33554;BME280;19885;42.208;24.952;2023-03-01T10:09:15;100611.69;;;7.67;100.00
33554;BME280;19885;42.208;24.952;2023-03-01T10:11:45;100610.28;;;7.78;100.00
33554;BME280;19885;42.208;24.952;2023-03-01T10:14:40;100605.72;;;7.99;100.00
33554;BME280;19885;42.208;24.952;2023-03-01T10:17:35;100611.19;;;8.08;100.00
33554;BME280;19885;42.208;24.952;2023-03-01T10:20:21;100600.06;;;7.84;100.00
33554;BME280;19885;42.208;24.952;2023-03-01T10:22:49;100608.22;;;7.96;100.00
33554;BME280;19885;42.208;24.952;2023-03-01T10:30:50;100597.34;;;7.79;100.00
33554;BME280;19885;42.208;24.952;2023-03-01T10:33:18;100590.69;;;7.87;100.00
33554;BME280;19885;42.208;24.952;2023-03-01T10:35:51;100601.56;;;7.76;100.00
33554;BME280;19885;42.208;24.952;2023-03-01T10:38:18;100595.53;;;7.77;100.00
33554;BME280;19885;42.208;24.952;2023-03-01T10:41:00;100589.41;;;8.03;100.00
33554;BME280;19885;42.208;24.952;2023-03-01T10:43:51;100594.88;;;7.84;100.00
33554;BME280;19885;42.208;24.952;2023-03-01T10:49:16;100579.03;;;7.75;100.00
33554;BME280;19885;42.208;24.952;2023-03-01T10:51:45;100594.53;;;7.72;100.00
33554;BME280;19885;42.208;24.952;2023-03-01T10:54:31;100586.97;;;7.79;100.00
33554;BME280;19885;42.208;24.952;2023-03-01T10:57:05;100576.41;;;7.73;100.00
33554;BME280;19885;42.208;24.952;2023-03-01T10:59:36;100578.34;;;7.80;100.00
33554;BME280;19885;42.208;24.952;2023-03-01T11:02:26;100580.94;;;7.80;100.00
33554;BME280;19885;42.208;24.952;2023-03-01T11:05:19;100579.69;;;7.96;100.00
33554;BME280;19885;42.208;24.952;2023-03-01T11:07:50;100568.84;;;8.11;100.00
33554;BME280;19885;42.208;24.952;2023-03-01T11:10:22;100577.06;;;7.96;100.00
33554;BME280;19885;42.208;24.952;2023-03-01T11:12:49;100573.94;;;7.76;100.00
33554;BME280;19885;42.208;24.952;2023-03-01T11:15:25;100574.31;;;7.60;100.00
33554;BME280;19885;42.208;24.952;2023-03-01T11:17:52;100565.38;;;7.51;100.00
33554;BME280;19885;42.208;24.952;2023-03-01T11:20:34;100556.19;;;7.62;100.00
33554;BME280;19885;42.208;24.952;2023-03-01T11:23:05;100549.97;;;7.57;100.00
33554;BME280;19885;42.208;24.952;2023-03-01T11:25:38;100545.72;;;7.59;100.00
33554;BME280;19885;42.208;24.952;2023-03-01T11:28:05;100524.13;;;7.60;100.00
33554;BME280;19885;42.208;24.952;2023-03-01T11:38:53;100532.16;;;7.67;100.00
33554;BME280;19885;42.208;24.952;2023-03-01T11:41:28;100531.50;;;7.74;100.00
33554;BME280;19885;42.208;24.952;2023-03-01T11:44:23;100531.81;;;7.86;100.00
33554;BME280;19885;42.208;24.952;2023-03-01T11:49:44;100530.16;;;7.88;100.00
33554;BME280;19885;42.208;24.952;2023-03-01T11:52:29;100516.72;;;7.72;100.00
33554;BME280;19885;42.208;24.952;2023-03-01T12:01:00;100516.97;;;7.51;100.00
33554;BME280;19885;42.208;24.952;2023-03-01T12:03:45;100510.00;;;7.49;100.00
33554;BME280;19885;42.208;24.952;2023-03-01T12:07:07;100510.81;;;7.48;100.00
33554;BME280;19885;42.208;24.952;2023-03-01T12:18:06;100512.09;;;7.62;100.00
33554;BME280;19885;42.208;24.952;2023-03-01T12:26:10;100507.41;;;7.49;100.00
33554;BME280;19885;42.208;24.952;2023-03-01T12:31:29;100500.81;;;7.60;100.00
33554;BME280;19885;42.208;24.952;2023-03-01T12:42:43;100491.09;;;7.53;100.00
33554;BME280;19885;42.208;24.952;2023-03-01T12:51:23;100495.63;;;7.60;100.00
33554;BME280;19885;42.208;24.952;2023-03-01T12:53:54;100484.44;;;7.62;100.00
33554;BME280;19885;42.208;24.952;2023-03-01T12:56:24;100487.00;;;7.61;100.00
33554;BME280;19885;42.208;24.952;2023-03-01T13:07:52;100495.63;;;7.60;100.00
33554;BME280;19885;42.208;24.952;2023-03-01T13:13:33;100488.59;;;7.56;100.00
33554;BME280;19885;42.208;24.952;2023-03-01T13:16:20;100476.56;;;7.59;100.00
33554;BME280;19885;42.208;24.952;2023-03-01T13:19:06;100490.84;;;7.75;100.00
33554;BME280;19885;42.208;24.952;2023-03-01T13:21:33;100495.66;;;7.61;100.00
33554;BME280;19885;42.208;24.952;2023-03-01T13:24:02;100495.50;;;7.57;100.00
33554;BME280;19885;42.208;24.952;2023-03-01T13:26:28;100492.75;;;7.51;100.00
33554;BME280;19885;42.208;24.952;2023-03-01T13:28:57;100487.44;;;7.46;100.00
33554;BME280;19885;42.208;24.952;2023-03-01T13:33:58;100478.97;;;7.52;100.00
33554;BME280;19885;42.208;24.952;2023-03-01T13:46:58;100491.19;;;7.56;100.00
33554;BME280;19885;42.208;24.952;2023-03-01T13:49:35;100501.03;;;7.38;100.00
33554;BME280;19885;42.208;24.952;2023-03-01T13:58:19;100500.56;;;7.52;100.00
33554;BME280;19885;42.208;24.952;2023-03-01T14:00:46;100494.16;;;7.40;100.00
33554;BME280;19885;42.208;24.952;2023-03-01T14:03:15;100483.06;;;7.45;100.00
33554;BME280;19885;42.208;24.952;2023-03-01T14:08:29;100497.66;;;7.40;100.00
33554;BME280;19885;42.208;24.952;2023-03-01T14:11:02;100496.00;;;7.44;100.00
33554;BME280;19885;42.208;24.952;2023-03-01T14:16:31;100494.13;;;7.38;100.00
33554;BME280;19885;42.208;24.952;2023-03-01T14:19:08;100471.47;;;7.33;100.00
33554;BME280;19885;42.208;24.952;2023-03-01T14:21:38;100489.22;;;7.47;100.00
33554;BME280;19885;42.208;24.952;2023-03-01T14:24:04;100494.91;;;7.36;100.00
33554;BME280;19885;42.208;24.952;2023-03-01T14:26:32;100488.94;;;7.38;100.00
33554;BME280;19885;42.208;24.952;2023-03-01T14:29:01;100500.09;;;7.36;100.00
33554;BME280;19885;42.208;24.952;2023-03-01T14:33:56;100491.41;;;7.34;100.00
33554;BME280;19885;42.208;24.952;2023-03-01T14:36:27;100488.59;;;7.28;100.00
33554;BME280;19885;42.208;24.952;2023-03-01T14:38:53;100488.44;;;7.22;100.00
33554;BME280;19885;42.208;24.952;2023-03-01T14:41:26;100478.06;;;7.22;100.00
33554;BME280;19885;42.208;24.952;2023-03-01T14:43:57;100492.47;;;7.40;100.00
33554;BME280;19885;42.208;24.952;2023-03-01T14:46:32;100491.47;;;7.37;100.00
33554;BME280;19885;42.208;24.952;2023-03-01T14:49:05;100495.59;;;7.30;100.00